Time;durP1;ratioP1;P1;durP2;ratioP2;P2;SDS_P1;SDS_P2;PMS_P1;PMS_P2;Temp;Humidity;BMP_temperature;BMP_pressure;BME280_temperature;BME280_humidity;BME280_pressure;Samples;Min_cycle;Max_cycle;Signal;HPM_P1;HPM_P2
2021/12/13 00:02:23;;;;;;;17.97;13.33;;;6.10;99.90;;;;;;5047324;28;20443;-59
2021/12/13 00:04:59;;;;;;;17.33;12.37;;;6.10;99.90;;;;;;5048911;28;20443;-59
2021/12/13 00:07:29;;;;;;;18.60;13.20;;;6.20;99.90;;;;;;5049317;28;20792;-60
2021/12/13 00:10:03;;;;;;;16.80;11.90;;;6.20;99.90;;;;;;5050109;28;20503;-59
2021/12/13 00:12:33;;;;;;;17.53;13.10;;;6.20;99.90;;;;;;5050785;28;20956;-59
2021/12/13 00:15:01;;;;;;;16.00;12.37;;;6.20;99.90;;;;;;5051113;28;20435;-59
2021/12/13 00:17:36;;;;;;;15.43;11.93;;;6.20;99.90;;;;;;5050327;28;20474;-59
2021/12/13 00:20:15;;;;;;;16.57;13.03;;;6.20;99.90;;;;;;5051142;28;20425;-59
2021/12/13 00:22:48;;;;;;;20.77;13.90;;;6.20;99.90;;;;;;5049225;28;20876;-60
2021/12/13 00:25:18;;;;;;;16.83;13.73;;;6.20;99.90;;;;;;5049580;28;20443;-59
2021/12/13 00:27:52;;;;;;;15.17;11.93;;;6.30;99.90;;;;;;5052198;28;20443;-59
2021/12/13 00:30:23;;;;;;;19.17;13.77;;;6.30;99.90;;;;;;5049474;28;20471;-59
2021/12/13 00:33:07;;;;;;;18.67;12.30;;;6.20;99.90;;;;;;5048811;28;20462;-59
2021/12/13 00:36:01;;;;;;;17.60;13.20;;;6.20;99.90;;;;;;5048581;28;20431;-60
2021/12/13 00:38:30;;;;;;;18.17;12.97;;;6.20;99.90;;;;;;5030433;28;20443;-60
2021/12/13 00:41:06;;;;;;;19.10;12.23;;;6.20;99.90;;;;;;5047114;28;20417;-59
2021/12/13 00:43:42;;;;;;;16.03;12.60;;;6.20;99.90;;;;;;5047813;28;20461;-58
2021/12/13 00:46:11;;;;;;;18.57;12.67;;;6.30;99.90;;;;;;5050382;28;20518;-59
2021/12/13 00:48:42;;;;;;;18.37;14.00;;;6.30;99.90;;;;;;5049119;28;20556;-59
2021/12/13 00:51:15;;;;;;;16.37;12.50;;;6.30;99.90;;;;;;5049232;28;20485;-60
2021/12/13 00:53:46;;;;;;;17.00;13.00;;;6.40;99.90;;;;;;5049845;28;20478;-59
2021/12/13 00:56:43;;;;;;;15.53;12.33;;;6.40;99.90;;;;;;5050482;28;20808;-60
2021/12/13 00:59:13;;;;;;;14.20;11.93;;;6.30;99.90;;;;;;5049088;28;20443;-59
2021/12/13 01:01:40;;;;;;;17.30;13.20;;;6.30;99.90;;;;;;5047959;28;20474;-60
2021/12/13 01:04:12;;;;;;;16.77;10.73;;;6.30;99.90;;;;;;5052288;28;20419;-61
2021/12/13 01:07:16;;;;;;;16.50;13.50;;;6.30;99.90;;;;;;5051837;28;20466;-59
2021/12/13 01:10:28;;;;;;;22.17;13.90;;;6.20;99.90;;;;;;5055929;28;20476;-59
2021/12/13 01:12:58;;;;;;;16.60;12.47;;;6.30;99.90;;;;;;5049911;28;20526;-59
2021/12/13 01:15:40;;;;;;;15.97;12.37;;;6.40;99.90;;;;;;5053050;28;20434;-59
2021/12/13 01:18:55;;;;;;;16.00;11.80;;;6.40;99.90;;;;;;5052190;28;20435;-59
2021/12/13 01:21:14;;;;;;;15.27;11.57;;;6.40;99.90;;;;;;5051119;28;20943;-59
2021/12/13 01:23:51;;;;;;;9.67;8.03;;;6.50;99.90;;;;;;5053815;28;20442;-60
2021/12/13 01:26:37;;;;;;;10.57;8.10;;;6.50;99.90;;;;;;5052641;28;20417;-59
2021/12/13 01:29:25;;;;;;;16.60;12.00;;;6.40;99.90;;;;;;5049815;28;20462;-59
2021/12/13 01:31:59;;;;;;;15.87;12.53;;;6.30;99.90;;;;;;5052275;28;20529;-60
2021/12/13 01:34:28;;;;;;;17.40;13.10;;;6.30;99.90;;;;;;5054691;28;20558;-59
2021/12/13 01:37:20;;;;;;;19.77;12.23;;;6.30;99.90;;;;;;5053683;28;20449;-59
2021/12/13 01:39:48;;;;;;;15.07;11.27;;;6.30;99.90;;;;;;5055587;28;20754;-58
2021/12/13 01:42:32;;;;;;;18.33;13.60;;;6.40;99.90;;;;;;5053646;28;20429;-59
2021/12/13 01:45:05;;;;;;;17.07;13.00;;;6.30;99.90;;;;;;5053677;28;20442;-59
2021/12/13 01:47:40;;;;;;;16.57;11.93;;;6.30;99.90;;;;;;5051565;28;20470;-59
2021/12/13 01:50:16;;;;;;;18.20;13.20;;;6.20;99.90;;;;;;5054328;28;20465;-59
2021/12/13 01:52:43;;;;;;;16.87;12.53;;;6.10;99.90;;;;;;5052580;28;20447;-59
2021/12/13 01:55:13;;;;;;;14.53;11.60;;;6.10;99.90;;;;;;5051692;28;20539;-59
2021/12/13 01:57:53;;;;;;;16.20;11.80;;;6.10;99.90;;;;;;5052157;28;20992;-59
2021/12/13 02:00:44;;;;;;;18.10;13.60;;;6.10;99.90;;;;;;5053240;28;20443;-58
2021/12/13 02:03:11;;;;;;;16.70;11.97;;;6.20;99.90;;;;;;5052762;28;20441;-59
2021/12/13 02:05:37;;;;;;;19.67;13.83;;;6.30;99.90;;;;;;5051313;28;20960;-59
2021/12/13 02:08:07;;;;;;;17.90;12.07;;;6.30;99.90;;;;;;5052742;28;20805;-60
2021/12/13 02:10:41;;;;;;;18.97;13.40;;;6.20;99.90;;;;;;5052748;28;20211;-58
2021/12/13 02:13:20;;;;;;;15.70;11.90;;;6.20;99.90;;;;;;5051601;28;20447;-59
2021/12/13 02:18:39;;;;;;;18.47;13.17;;;6.10;99.90;;;;;;5053472;28;20530;-59
2021/12/13 02:21:11;;;;;;;17.77;12.80;;;6.10;99.90;;;;;;5054749;28;20954;-60
2021/12/13 02:23:42;;;;;;;17.87;13.67;;;6.20;99.90;;;;;;5061530;28;20442;-59
2021/12/13 02:26:08;;;;;;;19.03;13.80;;;6.20;99.90;;;;;;5052072;28;20420;-59
2021/12/13 02:28:37;;;;;;;18.60;12.90;;;6.20;99.90;;;;;;5052044;28;21038;-59
2021/12/13 02:31:20;;;;;;;19.57;14.83;;;6.30;99.90;;;;;;5051223;28;20505;-61
2021/12/13 02:34:00;;;;;;;18.23;12.37;;;6.30;99.90;;;;;;5050086;28;20448;-59
2021/12/13 02:36:32;;;;;;;20.07;12.97;;;6.40;99.90;;;;;;5051616;28;20462;-61
2021/12/13 02:39:03;;;;;;;19.33;12.63;;;6.30;99.90;;;;;;5051252;28;20839;-59
2021/12/13 02:41:31;;;;;;;18.70;13.57;;;6.30;99.90;;;;;;5051651;28;20532;-60
2021/12/13 02:44:06;;;;;;;13.73;11.83;;;6.30;99.90;;;;;;5051181;28;20483;-59
2021/12/13 02:46:34;;;;;;;14.70;11.80;;;6.20;99.90;;;;;;5051437;28;20454;-59
2021/12/13 02:49:06;;;;;;;19.17;13.53;;;6.30;99.90;;;;;;5051191;28;20471;-59
2021/12/13 02:51:43;;;;;;;14.73;12.30;;;6.30;99.90;;;;;;5052224;28;20519;-59
2021/12/13 02:54:19;;;;;;;16.07;12.40;;;6.30;99.90;;;;;;5050146;28;20944;-59
2021/12/13 02:56:57;;;;;;;17.83;13.53;;;6.30;99.90;;;;;;5052187;28;20804;-59
2021/12/13 02:59:27;;;;;;;18.83;13.37;;;6.30;99.90;;;;;;5050848;28;20967;-59
2021/12/13 03:01:53;;;;;;;18.93;13.10;;;;;;;;;;5050940;28;20465;-59
2021/12/13 03:04:23;;;;;;;18.73;13.50;;;6.40;99.90;;;;;;5050649;28;20502;-59
2021/12/13 03:07:20;;;;;;;15.37;12.10;;;6.40;99.90;;;;;;5050493;28;20930;-60
2021/12/13 03:09:49;;;;;;;15.60;11.50;;;6.50;99.90;;;;;;5050574;28;20470;-60
2021/12/13 03:12:17;;;;;;;15.50;12.63;;;6.40;99.90;;;;;;5050937;28;20526;-59
2021/12/13 03:14:49;;;;;;;15.00;11.87;;;6.40;99.90;;;;;;5051969;28;20540;-58
2021/12/13 03:17:31;;;;;;;15.30;12.30;;;6.40;99.90;;;;;;5049937;28;20443;-59
2021/12/13 03:20:42;;;;;;;17.53;13.03;;;6.50;99.90;;;;;;5053651;28;20480;-60
2021/12/13 03:23:17;;;;;;;15.70;12.00;;;6.50;99.90;;;;;;5053616;28;21016;-59
2021/12/13 03:25:45;;;;;;;16.37;11.43;;;6.50;99.90;;;;;;5051242;28;20436;-59
2021/12/13 03:28:20;;;;;;;15.70;12.60;;;6.50;99.90;;;;;;5051419;28;20911;-58
2021/12/13 03:31:05;;;;;;;16.13;12.93;;;6.50;99.90;;;;;;5051256;28;20464;-59
2021/12/13 03:33:52;;;;;;;17.40;13.20;;;6.50;99.90;;;;;;5050413;28;20842;-59
2021/12/13 03:36:28;;;;;;;16.10;12.60;;;6.50;99.90;;;;;;5050561;28;20446;-59
2021/12/13 03:38:55;;;;;;;16.27;12.33;;;6.50;99.90;;;;;;5051620;28;20448;-58
2021/12/13 03:41:26;;;;;;;13.57;11.50;;;6.50;99.90;;;;;;5049381;28;20450;-59
2021/12/13 03:44:04;;;;;;;17.93;13.50;;;6.50;99.90;;;;;;5053623;28;20454;-60
2021/12/13 03:46:33;;;;;;;17.73;13.00;;;6.50;99.90;;;;;;5048339;28;20455;-60
2021/12/13 03:49:02;;;;;;;16.63;12.03;;;6.40;99.90;;;;;;5051852;28;20542;-59
2021/12/13 03:51:32;;;;;;;14.40;11.07;;;6.40;99.90;;;;;;5052763;28;20508;-59
2021/12/13 03:53:59;;;;;;;16.40;11.93;;;6.50;99.90;;;;;;5050065;28;20496;-60
2021/12/13 03:56:40;;;;;;;15.50;12.00;;;6.40;99.90;;;;;;5052073;28;20916;-58
2021/12/13 03:59:14;;;;;;;14.70;11.87;;;6.40;99.90;;;;;;5051225;28;20424;-60
2021/12/13 04:01:44;;;;;;;16.33;11.60;;;6.40;99.90;;;;;;5050037;28;20435;-59
2021/12/13 04:04:14;;;;;;;14.57;10.80;;;6.40;99.90;;;;;;5050452;28;20417;-59
2021/12/13 04:06:47;;;;;;;14.07;11.20;;;6.40;99.90;;;;;;5050351;28;20540;-59
2021/12/13 04:09:13;;;;;;;20.97;12.70;;;6.30;99.90;;;;;;5048993;28;20465;-59
2021/12/13 04:11:42;;;;;;;16.03;12.10;;;6.30;99.90;;;;;;5066628;28;20455;-59
2021/12/13 04:14:16;;;;;;;15.23;12.20;;;6.40;99.90;;;;;;5049446;28;20257;-59
2021/12/13 04:17:02;;;;;;;15.73;11.80;;;6.40;99.90;;;;;;5049051;28;20569;-59
2021/12/13 04:19:43;;;;;;;16.67;13.00;;;6.50;99.90;;;;;;5049516;28;20480;-60
2021/12/13 04:22:09;;;;;;;17.50;11.87;;;6.50;99.90;;;;;;5049693;28;20442;-59
2021/12/13 04:24:49;;;;;;;15.60;11.63;;;6.60;99.90;;;;;;5056779;28;20925;-59
2021/12/13 04:27:23;;;;;;;17.50;12.57;;;6.60;99.90;;;;;;5049965;28;20438;-59
2021/12/13 04:29:52;;;;;;;13.80;10.73;;;6.60;99.90;;;;;;5056318;28;20888;-59
2021/12/13 04:32:27;;;;;;;15.13;11.30;;;6.60;99.90;;;;;;5052717;28;20429;-60
2021/12/13 04:34:55;;;;;;;15.83;12.60;;;6.60;99.90;;;;;;5049294;28;20457;-59
2021/12/13 04:37:26;;;;;;;16.87;12.17;;;6.60;99.90;;;;;;5049233;28;20474;-59
2021/12/13 04:40:06;;;;;;;16.33;12.20;;;6.70;99.90;;;;;;5050972;28;20482;-60
2021/12/13 04:42:31;;;;;;;18.00;12.40;;;6.60;99.90;;;;;;5058547;28;20545;-59
2021/12/13 04:45:09;;;;;;;17.70;12.50;;;6.60;99.90;;;;;;5049551;28;20533;-59
2021/12/13 04:47:52;;;;;;;17.33;12.73;;;6.60;99.90;;;;;;5049063;28;20254;-58
2021/12/13 04:50:26;;;;;;;17.50;12.90;;;6.70;99.90;;;;;;5053648;28;20524;-59
2021/12/13 04:52:52;;;;;;;16.50;12.67;;;6.60;99.90;;;;;;5053170;28;20417;-60
2021/12/13 04:55:25;;;;;;;16.70;12.97;;;6.60;99.90;;;;;;5053501;28;20541;-59
2021/12/13 04:57:54;;;;;;;15.00;12.40;;;6.70;99.90;;;;;;5052747;28;20409;-59
2021/12/13 05:00:22;;;;;;;18.47;13.50;;;6.60;99.90;;;;;;5051328;28;20470;-59
2021/12/13 05:02:51;;;;;;;15.57;12.20;;;6.60;99.90;;;;;;5050875;28;20497;-59
2021/12/13 05:05:18;;;;;;;17.63;13.90;;;6.60;99.90;;;;;;5052766;28;20518;-60
2021/12/13 05:07:47;;;;;;;18.63;13.07;;;6.50;99.90;;;;;;5056303;28;20450;-61
2021/12/13 05:10:14;;;;;;;19.33;13.57;;;6.50;99.90;;;;;;5054553;28;20527;-62
2021/12/13 05:12:42;;;;;;;20.60;13.70;;;6.50;99.90;;;;;;5060053;28;20443;-63
2021/12/13 05:15:11;;;;;;;16.90;12.70;;;6.60;99.90;;;;;;5054203;28;20508;-61
2021/12/13 05:17:42;;;;;;;18.17;12.80;;;6.40;99.90;;;;;;5053653;28;20438;-63
2021/12/13 05:20:16;;;;;;;16.83;12.53;;;6.40;99.90;;;;;;5053842;28;20523;-62
2021/12/13 05:22:59;;;;;;;16.47;12.57;;;6.50;99.90;;;;;;5053058;28;20453;-61
2021/12/13 05:25:34;;;;;;;17.23;11.80;;;6.50;99.90;;;;;;5063042;28;20446;-61
2021/12/13 05:28:11;;;;;;;15.53;12.03;;;6.40;99.90;;;;;;5060192;28;20444;-60
2021/12/13 05:30:57;;;;;;;18.67;13.17;;;6.40;99.90;;;;;;5056605;28;20546;-59
2021/12/13 05:33:24;;;;;;;16.20;13.03;;;6.50;99.90;;;;;;5057262;28;20449;-60
2021/12/13 05:35:54;;;;;;;16.50;12.33;;;6.50;99.90;;;;;;5055532;28;20443;-60
2021/12/13 05:38:27;;;;;;;15.17;11.57;;;6.50;99.90;;;;;;5054235;28;20784;-60
2021/12/13 05:40:54;;;;;;;16.17;12.63;;;6.60;99.90;;;;;;5061010;28;20529;-60
2021/12/13 05:43:19;;;;;;;16.00;12.17;;;;;;;;;;5056007;28;20445;-59
2021/12/13 05:45:53;;;;;;;15.07;11.37;;;6.60;99.90;;;;;;5054687;28;20437;-59
2021/12/13 05:48:36;;;;;;;17.37;12.27;;;6.60;99.90;;;;;;5053218;28;20956;-62
2021/12/13 05:51:26;;;;;;;15.63;12.67;;;6.70;99.90;;;;;;5059838;28;20500;-59
2021/12/13 05:54:09;;;;;;;15.50;11.23;;;6.70;99.90;;;;;;5061671;28;20522;-60
2021/12/13 05:56:40;;;;;;;16.77;12.63;;;6.70;99.90;;;;;;5061778;28;20443;-59
2021/12/13 05:59:17;;;;;;;16.67;12.40;;;6.70;99.90;;;;;;5052259;28;20443;-59
2021/12/13 06:01:56;;;;;;;16.20;11.73;;;6.70;99.90;;;;;;5052026;28;20438;-60
2021/12/13 06:05:05;;;;;;;17.10;13.27;;;6.70;99.90;;;;;;5053228;28;20443;-60
2021/12/13 06:07:38;;;;;;;16.70;12.43;;;6.70;99.90;;;;;;5025429;28;20451;-59
2021/12/13 06:10:06;;;;;;;18.23;12.83;;;6.70;99.90;;;;;;5059862;28;20536;-60
2021/12/13 06:12:49;;;;;;;15.60;11.90;;;6.70;99.90;;;;;;5052814;28;20525;-60
2021/12/13 06:15:20;;;;;;;21.13;12.70;;;6.80;99.90;;;;;;5050580;28;20447;-60
2021/12/13 06:18:03;;;;;;;17.70;12.27;;;6.80;99.90;;;;;;5053903;28;20449;-58
2021/12/13 06:20:32;;;;;;;23.13;15.90;;;6.80;99.90;;;;;;5053147;28;20681;-60
2021/12/13 06:23:09;;;;;;;16.33;12.40;;;6.80;99.90;;;;;;5058437;28;20449;-60
2021/12/13 06:25:37;;;;;;;16.17;11.93;;;6.80;99.90;;;;;;5056011;28;20438;-60
2021/12/13 06:28:05;;;;;;;16.53;11.30;;;6.80;99.90;;;;;;5055639;28;20435;-60
2021/12/13 06:30:38;;;;;;;14.50;11.73;;;6.90;99.90;;;;;;5059294;28;20827;-59
2021/12/13 06:33:10;;;;;;;14.97;11.07;;;6.90;99.90;;;;;;5054767;28;20443;-61
2021/12/13 06:35:46;;;;;;;16.93;11.43;;;6.90;99.90;;;;;;5051499;28;20435;-61
2021/12/13 06:38:51;;;;;;;16.10;11.70;;;6.90;99.90;;;;;;5051494;28;20431;-60
2021/12/13 06:41:32;;;;;;;14.10;11.60;;;6.90;99.90;;;;;;5054700;28;20506;-60
2021/12/13 06:43:59;;;;;;;14.60;11.30;;;6.90;99.90;;;;;;5055908;28;20457;-59
2021/12/13 06:46:30;;;;;;;14.70;10.83;;;6.90;99.90;;;;;;5051685;28;20417;-60
2021/12/13 06:49:04;;;;;;;13.13;10.20;;;6.90;99.90;;;;;;5059584;28;20432;-59
2021/12/13 06:51:50;;;;;;;14.97;11.40;;;7.00;99.90;;;;;;5056780;28;20433;-59
2021/12/13 06:54:16;;;;;;;13.90;10.80;;;;;;;;;;5038215;28;21065;-59
2021/12/13 06:56:43;;;;;;;16.03;10.87;;;7.00;99.90;;;;;;5055441;28;20431;-59
2021/12/13 06:59:15;;;;;;;17.20;12.00;;;7.00;99.90;;;;;;5062125;28;20465;-60
2021/12/13 07:01:41;;;;;;;15.40;12.00;;;6.90;99.90;;;;;;5054513;28;20457;-60
2021/12/13 07:04:10;;;;;;;13.80;10.50;;;7.00;99.90;;;;;;5059332;28;20439;-60
2021/12/13 07:06:37;;;;;;;13.97;10.53;;;7.00;99.90;;;;;;5054904;28;20521;-60
2021/12/13 07:09:19;;;;;;;16.93;10.83;;;6.90;99.90;;;;;;5064995;28;20461;-60
2021/12/13 07:11:53;;;;;;;12.13;10.03;;;6.90;99.90;;;;;;5059747;28;20443;-60
2021/12/13 07:14:22;;;;;;;14.03;9.90;;;6.90;99.90;;;;;;5057767;28;20845;-59
2021/12/13 07:16:53;;;;;;;15.07;10.97;;;6.90;99.90;;;;;;5062933;28;20435;-59
2021/12/13 07:19:25;;;;;;;14.50;11.73;;;6.90;99.90;;;;;;5066370;28;20785;-59
2021/12/13 07:21:59;;;;;;;15.13;11.60;;;6.90;99.90;;;;;;5058557;28;20868;-60
2021/12/13 07:24:33;;;;;;;14.30;11.53;;;6.80;99.90;;;;;;5054120;28;20433;-60
2021/12/13 07:27:05;;;;;;;16.87;11.87;;;6.80;99.90;;;;;;5056972;28;20473;-59
2021/12/13 07:29:42;;;;;;;15.73;12.17;;;6.80;99.90;;;;;;5054285;28;20445;-60
2021/12/13 07:32:16;;;;;;;15.77;11.80;;;6.80;99.90;;;;;;5053589;28;20856;-60
2021/12/13 07:34:56;;;;;;;16.73;11.43;;;6.80;99.90;;;;;;5060907;28;20408;-60
2021/12/13 07:37:40;;;;;;;16.27;12.20;;;6.90;99.90;;;;;;5061303;28;20494;-61
2021/12/13 07:40:24;;;;;;;14.27;11.77;;;6.90;99.90;;;;;;5053623;28;20452;-60
2021/12/13 07:43:01;;;;;;;15.30;11.77;;;6.80;99.90;;;;;;5050486;28;20474;-60
2021/12/13 07:45:41;;;;;;;14.63;11.70;;;6.90;99.90;;;;;;5052226;28;20521;-58
2021/12/13 07:48:21;;;;;;;15.53;12.10;;;6.90;99.90;;;;;;5055226;28;20526;-60
2021/12/13 07:51:11;;;;;;;17.73;11.30;;;6.90;99.90;;;;;;5072106;28;20480;-60
2021/12/13 07:53:48;;;;;;;16.87;11.97;;;7.00;99.90;;;;;;5066175;28;20446;-59
2021/12/13 07:56:25;;;;;;;14.40;10.70;;;7.00;99.90;;;;;;5055096;28;20763;-60
2021/12/13 07:59:00;;;;;;;15.30;12.60;;;7.00;99.90;;;;;;5056220;28;20450;-60
2021/12/13 08:01:31;;;;;;;15.57;11.50;;;6.90;99.90;;;;;;5055563;28;20462;-59
2021/12/13 08:04:07;;;;;;;18.83;12.40;;;6.90;99.90;;;;;;5059510;28;20443;-58
2021/12/13 08:06:38;;;;;;;14.60;11.63;;;6.90;99.90;;;;;;5053402;28;20939;-60
2021/12/13 08:09:06;;;;;;;16.23;11.83;;;6.90;99.90;;;;;;5056183;28;20474;-60
2021/12/13 08:12:03;;;;;;;15.30;11.97;;;7.00;99.90;;;;;;5060941;28;20466;-60
2021/12/13 08:14:39;;;;;;;14.53;11.10;;;7.00;99.90;;;;;;5063762;28;20430;-60
2021/12/13 08:17:59;;;;;;;16.13;11.93;;;7.10;99.90;;;;;;5051971;28;20520;-60
2021/12/13 08:20:50;;;;;;;15.00;11.70;;;7.00;99.90;;;;;;5033249;28;20787;-60
2021/12/13 08:23:19;;;;;;;15.70;11.43;;;7.10;99.90;;;;;;5051167;28;20431;-60
2021/12/13 08:25:47;;;;;;;17.20;12.20;;;7.20;99.90;;;;;;5069356;28;20430;-61
2021/12/13 08:28:18;;;;;;;16.70;12.90;;;7.20;99.90;;;;;;5055726;28;20960;-60
2021/12/13 08:30:48;;;;;;;18.43;12.70;;;7.20;99.90;;;;;;5062406;28;20461;-60
2021/12/13 08:33:19;;;;;;;17.77;10.80;;;7.20;99.90;;;;;;5061776;28;20441;-61
2021/12/13 08:36:05;;;;;;;17.93;12.63;;;7.30;99.90;;;;;;5068627;28;20505;-60
2021/12/13 08:39:15;;;;;;;17.17;12.77;;;7.30;99.90;;;;;;5061652;28;20492;-60
2021/12/13 08:41:45;;;;;;;20.13;12.93;;;7.30;99.90;;;;;;5061436;28;20429;-61
2021/12/13 08:44:11;;;;;;;15.90;13.00;;;7.30;99.90;;;;;;5061398;28;20887;-61
2021/12/13 08:46:47;;;;;;;16.30;11.77;;;7.30;99.90;;;;;;5062973;28;20611;-59
2021/12/13 08:49:31;;;;;;;15.70;12.33;;;7.30;99.90;;;;;;5066997;28;20199;-60
2021/12/13 08:51:57;;;;;;;19.10;12.70;;;;;;;;;;5061782;28;20423;-60
2021/12/13 08:54:34;;;;;;;14.30;11.67;;;7.40;99.90;;;;;;5060102;28;20998;-61
2021/12/13 08:57:00;;;;;;;13.40;11.20;;;7.50;99.90;;;;;;5059412;28;20846;-60
2021/12/13 08:59:28;;;;;;;16.97;12.73;;;7.50;99.90;;;;;;5058370;28;20443;-60
2021/12/13 09:02:09;;;;;;;15.20;12.20;;;7.50;99.90;;;;;;5066779;28;20393;-59
2021/12/13 09:04:41;;;;;;;17.00;11.00;;;7.50;99.90;;;;;;5062734;28;20464;-61
2021/12/13 09:07:12;;;;;;;14.97;11.77;;;7.60;99.90;;;;;;5073166;28;20449;-60
2021/12/13 09:09:44;;;;;;;16.00;12.73;;;7.60;99.90;;;;;;5064962;28;20943;-61
2021/12/13 09:12:14;;;;;;;13.60;10.57;;;7.60;99.90;;;;;;5056914;28;20448;-60
2021/12/13 09:14:51;;;;;;;14.93;11.77;;;7.70;99.90;;;;;;5067001;28;20412;-61
2021/12/13 09:17:31;;;;;;;14.87;11.53;;;7.60;99.90;;;;;;5060988;28;21071;-59
2021/12/13 09:20:31;;;;;;;14.90;10.90;;;7.70;99.90;;;;;;5053233;28;20450;-59
2021/12/13 09:23:11;;;;;;;15.33;10.80;;;7.60;99.90;;;;;;5067870;28;20457;-60
2021/12/13 09:25:41;;;;;;;19.30;12.47;;;7.60;99.90;;;;;;5068170;28;20839;-59
2021/12/13 09:28:15;;;;;;;16.23;11.10;;;7.70;99.90;;;;;;5060245;28;20526;-59
2021/12/13 09:30:55;;;;;;;19.03;11.50;;;7.70;99.90;;;;;;5059012;28;21085;-60
2021/12/13 09:33:28;;;;;;;15.27;11.17;;;7.70;99.90;;;;;;5060136;28;20472;-60
2021/12/13 09:36:04;;;;;;;12.90;10.67;;;7.80;99.90;;;;;;5056502;28;20434;-60
2021/12/13 09:39:01;;;;;;;16.47;12.10;;;7.80;99.90;;;;;;5062815;28;20526;-58
2021/12/13 09:41:46;;;;;;;14.63;11.93;;;7.70;99.90;;;;;;5049648;28;20941;-60
2021/12/13 09:44:11;;;;;;;14.17;11.83;;;7.70;99.90;;;;;;5064183;28;20479;-60
2021/12/13 09:46:55;;;;;;;14.90;11.30;;;7.80;99.90;;;;;;5063448;28;20466;-60
2021/12/13 09:50:00;;;;;;;16.50;11.60;;;7.80;99.90;;;;;;5065533;28;20556;-59
2021/12/13 09:52:34;;;;;;;13.50;11.90;;;7.70;99.90;;;;;;5055563;28;20466;-60
2021/12/13 09:55:25;;;;;;;14.70;11.67;;;7.80;99.90;;;;;;5062937;28;20430;-60
2021/12/13 09:58:07;;;;;;;19.37;11.93;;;7.80;99.90;;;;;;5067952;28;20792;-60
2021/12/13 10:00:49;;;;;;;14.20;11.43;;;7.90;99.90;;;;;;5057791;28;20439;-60
2021/12/13 10:03:28;;;;;;;14.67;11.93;;;7.90;99.90;;;;;;5060778;28;20422;-61
2021/12/13 10:05:58;;;;;;;14.67;11.50;;;8.00;99.90;;;;;;5060287;28;20439;-60
2021/12/13 10:08:46;;;;;;;15.10;10.87;;;8.00;99.90;;;;;;5057391;28;20434;-60
2021/12/13 10:11:19;;;;;;;16.57;12.47;;;8.10;99.90;;;;;;5055297;28;20487;-60
2021/12/13 10:13:45;;;;;;;16.13;11.53;;;8.10;99.90;;;;;;5061325;28;20902;-59
2021/12/13 10:16:16;;;;;;;14.73;11.53;;;8.00;99.90;;;;;;5062774;28;20584;-59
2021/12/13 10:18:47;;;;;;;16.57;12.90;;;8.10;99.90;;;;;;5059936;28;20494;-59
2021/12/13 10:21:26;;;;;;;15.27;12.20;;;8.10;99.90;;;;;;5061689;28;20413;-59
2021/12/13 10:23:57;;;;;;;17.90;11.70;;;8.10;99.90;;;;;;5063754;28;20430;-61
2021/12/13 10:26:29;;;;;;;17.90;11.20;;;8.00;99.90;;;;;;5060613;28;20910;-61
2021/12/13 10:28:57;;;;;;;14.03;11.43;;;8.10;99.90;;;;;;5060153;28;20466;-59
2021/12/13 10:31:36;;;;;;;17.33;11.77;;;8.20;99.90;;;;;;5061685;28;20442;-60
2021/12/13 10:34:09;;;;;;;15.20;12.10;;;8.30;99.90;;;;;;5068572;28;20419;-58
2021/12/13 10:36:36;;;;;;;14.87;11.70;;;8.30;99.90;;;;;;5055332;28;20430;-61
2021/12/13 10:39:12;;;;;;;15.20;12.00;;;8.30;99.90;;;;;;5062328;28;20439;-60
2021/12/13 10:41:41;;;;;;;17.53;14.30;;;8.20;99.90;;;;;;5065583;28;20437;-60
2021/12/13 10:44:11;;;;;;;16.27;13.10;;;8.30;99.90;;;;;;5062489;28;20804;-60
2021/12/13 10:46:41;;;;;;;16.90;12.40;;;8.30;99.90;;;;;;5061558;28;20434;-60
2021/12/13 10:49:16;;;;;;;18.20;13.27;;;8.40;99.90;;;;;;5060856;28;20458;-60
2021/12/13 10:51:54;;;;;;;15.37;12.30;;;8.40;99.90;;;;;;5063133;28;20416;-59
2021/12/13 10:54:26;;;;;;;17.97;12.73;;;8.50;99.90;;;;;;5063857;28;21043;-60
2021/12/13 10:57:04;;;;;;;20.10;14.77;;;8.60;99.90;;;;;;5057859;28;20919;-60
2021/12/13 10:59:33;;;;;;;16.90;12.43;;;8.60;99.90;;;;;;5056190;28;20941;-60
2021/12/13 11:02:10;;;;;;;19.87;14.93;;;8.70;99.90;;;;;;5061806;28;20417;-60
2021/12/13 11:04:43;;;;;;;22.67;15.07;;;8.70;99.90;;;;;;5063085;28;20482;-61
2021/12/13 11:07:13;;;;;;;20.17;16.10;;;8.70;99.90;;;;;;5057462;28;20421;-60
2021/12/13 11:09:40;;;;;;;19.73;14.27;;;8.70;99.90;;;;;;5061176;28;20477;-60
2021/12/13 11:12:12;;;;;;;20.50;14.63;;;8.70;99.90;;;;;;5063047;28;20482;-59
2021/12/13 11:14:41;;;;;;;19.57;14.53;;;8.60;99.90;;;;;;5057186;28;20756;-59
2021/12/13 11:17:11;;;;;;;17.43;14.10;;;8.60;99.90;;;;;;5053398;28;20435;-60
2021/12/13 11:19:39;;;;;;;20.70;15.50;;;8.60;99.90;;;;;;5068237;28;20498;-59
2021/12/13 11:22:13;;;;;;;20.63;15.10;;;7.90;99.90;;;;;;5063814;28;20448;-60
2021/12/13 11:24:44;;;;;;;23.10;16.67;;;8.60;99.90;;;;;;5064288;28;20884;-60
2021/12/13 11:27:17;;;;;;;21.17;15.37;;;8.70;99.90;;;;;;5066238;28;20481;-60
2021/12/13 11:29:45;;;;;;;26.40;17.07;;;8.80;99.90;;;;;;5064555;28;20543;-59
2021/12/13 11:32:34;;;;;;;20.47;15.13;;;8.70;99.90;;;;;;5060715;28;20435;-61
2021/12/13 11:35:47;;;;;;;18.53;13.80;;;8.80;99.90;;;;;;5063354;28;20509;-60
2021/12/13 11:38:54;;;;;;;22.40;16.07;;;8.80;99.90;;;;;;5057864;28;20435;-60
2021/12/13 11:41:27;;;;;;;18.57;14.07;;;8.90;99.90;;;;;;5061475;28;20487;-60
2021/12/13 11:44:21;;;;;;;20.30;13.43;;;8.90;99.90;;;;;;5061461;28;20920;-60
2021/12/13 11:47:26;;;;;;;23.10;16.13;;;8.90;99.90;;;;;;5060723;28;20491;-59
2021/12/13 11:50:12;;;;;;;19.00;13.77;;;8.90;99.90;;;;;;5054343;28;20558;-58
2021/12/13 11:53:12;;;;;;;18.60;13.90;;;8.90;99.90;;;;;;5058265;28;20775;-59
2021/12/13 11:55:52;;;;;;;18.10;14.00;;;8.90;99.90;;;;;;5057245;28;20492;-59
2021/12/13 11:58:42;;;;;;;16.40;13.50;;;8.90;99.90;;;;;;5057876;28;20428;-61
2021/12/13 12:01:43;;;;;;;17.93;12.50;;;9.00;99.90;;;;;;5062452;28;20829;-59
2021/12/13 12:04:42;;;;;;;16.00;11.13;;;9.00;99.90;;;;;;5063311;28;20417;-59
2021/12/13 12:07:14;;;;;;;16.97;11.30;;;8.90;99.90;;;;;;5057358;28;20491;-60
2021/12/13 12:09:58;;;;;;;14.07;11.43;;;8.90;99.90;;;;;;5056456;28;20886;-59
2021/12/13 12:12:50;;;;;;;18.57;13.83;;;9.00;99.90;;;;;;5060712;28;20981;-60
2021/12/13 12:15:17;;;;;;;22.10;15.60;;;9.10;99.90;;;;;;5047955;28;20437;-59
2021/12/13 12:17:43;;;;;;;17.13;13.00;;;9.00;99.90;;;;;;5063171;28;20430;-60
2021/12/13 12:20:12;;;;;;;16.40;12.37;;;9.00;99.90;;;;;;5058806;28;20419;-59
2021/12/13 12:22:51;;;;;;;16.13;13.20;;;9.00;99.90;;;;;;5057034;28;20193;-60
2021/12/13 12:25:20;;;;;;;15.23;11.93;;;9.00;99.90;;;;;;5062012;28;20790;-60
2021/12/13 12:27:46;;;;;;;16.43;13.13;;;9.00;99.90;;;;;;5053413;28;20506;-60
2021/12/13 12:30:16;;;;;;;13.73;12.10;;;9.10;99.90;;;;;;5061021;28;20478;-60
2021/12/13 12:32:50;;;;;;;16.07;13.43;;;9.10;99.90;;;;;;5053614;28;20423;-60
2021/12/13 12:35:25;;;;;;;18.77;14.33;;;9.10;99.90;;;;;;5058148;28;20492;-59
2021/12/13 12:37:56;;;;;;;19.23;14.50;;;9.10;99.90;;;;;;5060513;28;20436;-60
2021/12/13 12:40:27;;;;;;;17.23;13.20;;;9.10;99.90;;;;;;5062681;28;20798;-62
2021/12/13 12:42:58;;;;;;;15.20;12.70;;;9.20;99.90;;;;;;5056075;28;20488;-59
2021/12/13 12:45:44;;;;;;;17.40;13.80;;;9.20;99.90;;;;;;5056699;28;20549;-61
2021/12/13 12:48:21;;;;;;;19.73;14.53;;;9.10;99.90;;;;;;5054738;28;20478;-59
2021/12/13 12:50:54;;;;;;;18.20;14.97;;;9.10;99.90;;;;;;5051693;28;20466;-60
2021/12/13 12:53:48;;;;;;;23.37;14.40;;;9.10;99.90;;;;;;5055475;28;20409;-59
2021/12/13 12:56:23;;;;;;;18.00;14.37;;;9.10;99.90;;;;;;5061325;28;20434;-59
2021/12/13 12:59:04;;;;;;;17.00;13.50;;;9.20;99.90;;;;;;5068753;28;20480;-61
2021/12/13 13:01:35;;;;;;;16.70;13.67;;;9.20;99.90;;;;;;5064364;28;20800;-60
2021/12/13 13:04:15;;;;;;;17.53;13.80;;;9.10;99.90;;;;;;5061457;28;20902;-59
2021/12/13 13:06:58;;;;;;;24.70;20.70;;;9.10;99.90;;;;;;5061246;28;20441;-60
2021/12/13 13:09:33;;;;;;;16.63;14.27;;;9.20;99.90;;;;;;5058360;28;20471;-60
2021/12/13 13:11:59;;;;;;;15.77;12.63;;;9.10;99.90;;;;;;5052083;28;20798;-59
2021/12/13 13:14:30;;;;;;;17.80;14.00;;;9.10;99.90;;;;;;5064462;28;20444;-59
2021/12/13 13:17:03;;;;;;;16.30;13.57;;;9.10;99.90;;;;;;5055342;28;20177;-60
2021/12/13 13:19:34;;;;;;;18.13;13.37;;;9.00;99.90;;;;;;5062128;28;20412;-59
2021/12/13 13:22:06;;;;;;;17.57;13.90;;;9.10;99.90;;;;;;5058173;28;20444;-60
2021/12/13 13:24:39;;;;;;;18.50;13.00;;;9.10;99.90;;;;;;5057693;28;21650;-60
2021/12/13 13:27:05;;;;;;;18.13;14.83;;;9.10;99.90;;;;;;5059217;28;20504;-60